sensor_id;sensor_type;location;lat;lon;timestamp;temperature;humidity
13794;DHT22;31160;49.500;7.772;2023-03-03T00:01:15;0.60;99.90
13794;DHT22;31160;49.500;7.772;2023-03-03T00:03:42;0.60;99.90
13794;DHT22;31160;49.500;7.772;2023-03-03T00:06:12;0.60;99.90
13794;DHT22;31160;49.500;7.772;2023-03-03T00:08:39;0.50;99.90
13794;DHT22;31160;49.500;7.772;2023-03-03T00:11:06;0.50;99.90
13794;DHT22;31160;49.500;7.772;2023-03-03T00:13:47;0.50;99.90
13794;DHT22;31160;49.500;7.772;2023-03-03T00:16:20;0.50;99.90
13794;DHT22;31160;49.500;7.772;2023-03-03T00:18:48;0.50;99.90
13794;DHT22;31160;49.500;7.772;2023-03-03T00:21:26;0.50;99.90
13794;DHT22;31160;49.500;7.772;2023-03-03T00:24:31;0.50;99.90
13794;DHT22;31160;49.500;7.772;2023-03-03T00:27:16;0.40;99.90
13794;DHT22;31160;49.500;7.772;2023-03-03T00:29:45;0.30;99.90
13794;DHT22;31160;49.500;7.772;2023-03-03T00:32:41;0.30;99.90
13794;DHT22;31160;49.500;7.772;2023-03-03T00:37:54;0.20;99.90
13794;DHT22;31160;49.500;7.772;2023-03-03T00:40:35;0.20;99.90
13794;DHT22;31160;49.500;7.772;2023-03-03T00:43:17;0.30;99.90
13794;DHT22;31160;49.500;7.772;2023-03-03T00:45:50;0.30;99.90
13794;DHT22;31160;49.500;7.772;2023-03-03T00:50:55;0.30;99.90
13794;DHT22;31160;49.500;7.772;2023-03-03T00:53:24;0.20;99.90
13794;DHT22;31160;49.500;7.772;2023-03-03T00:55:53;0.20;99.90
13794;DHT22;31160;49.500;7.772;2023-03-03T00:58:21;0.10;99.90
13794;DHT22;31160;49.500;7.772;2023-03-03T01:00:50;0.10;99.90
13794;DHT22;31160;49.500;7.772;2023-03-03T01:03:22;0.00;99.90
13794;DHT22;31160;49.500;7.772;2023-03-03T01:05:52;0.00;99.90
13794;DHT22;31160;49.500;7.772;2023-03-03T01:08:19;0.10;99.90
13794;DHT22;31160;49.500;7.772;2023-03-03T01:10:53;0.10;99.90
13794;DHT22;31160;49.500;7.772;2023-03-03T01:13:22;0.10;99.90
13794;DHT22;31160;49.500;7.772;2023-03-03T01:15:49;0.10;99.90
13794;DHT22;31160;49.500;7.772;2023-03-03T01:18:16;0.00;99.90
13794;DHT22;31160;49.500;7.772;2023-03-03T01:20:44;0.00;99.90
13794;DHT22;31160;49.500;7.772;2023-03-03T01:23:10;0.00;99.90
13794;DHT22;31160;49.500;7.772;2023-03-03T01:25:38;-0.10;99.90
13794;DHT22;31160;49.500;7.772;2023-03-03T01:28:05;-0.10;99.90
13794;DHT22;31160;49.500;7.772;2023-03-03T01:30:32;-0.10;99.90
13794;DHT22;31160;49.500;7.772;2023-03-03T01:32:59;-0.10;99.90
13794;DHT22;31160;49.500;7.772;2023-03-03T01:35:26;-0.10;99.90
13794;DHT22;31160;49.500;7.772;2023-03-03T01:37:53;-0.10;99.90
13794;DHT22;31160;49.500;7.772;2023-03-03T01:40:23;-0.10;99.90
13794;DHT22;31160;49.500;7.772;2023-03-03T01:42:50;-0.20;99.90
13794;DHT22;31160;49.500;7.772;2023-03-03T01:45:19;-0.20;99.90
13794;DHT22;31160;49.500;7.772;2023-03-03T01:47:57;-0.20;99.90
13794;DHT22;31160;49.500;7.772;2023-03-03T01:50:27;-0.30;99.90
13794;DHT22;31160;49.500;7.772;2023-03-03T01:52:57;-0.40;99.90
13794;DHT22;31160;49.500;7.772;2023-03-03T01:55:29;-0.30;99.90
13794;DHT22;31160;49.500;7.772;2023-03-03T01:58:03;-0.30;99.90
13794;DHT22;31160;49.500;7.772;2023-03-03T02:00:33;-0.40;99.90
13794;DHT22;31160;49.500;7.772;2023-03-03T02:03:03;-0.40;99.90
13794;DHT22;31160;49.500;7.772;2023-03-03T02:05:31;-0.50;99.90
13794;DHT22;31160;49.500;7.772;2023-03-03T02:07:58;-0.50;99.90
13794;DHT22;31160;49.500;7.772;2023-03-03T02:10:26;-0.50;99.90
13794;DHT22;31160;49.500;7.772;2023-03-03T02:12:55;-0.50;99.90
13794;DHT22;31160;49.500;7.772;2023-03-03T02:15:26;-0.50;99.90
13794;DHT22;31160;49.500;7.772;2023-03-03T02:17:55;-0.50;99.90
13794;DHT22;31160;49.500;7.772;2023-03-03T02:20:31;-0.50;99.90
13794;DHT22;31160;49.500;7.772;2023-03-03T02:28:29;-0.60;99.90
13794;DHT22;31160;49.500;7.772;2023-03-03T02:31:00;-0.50;99.90
13794;DHT22;31160;49.500;7.772;2023-03-03T02:33:28;-0.50;99.90
13794;DHT22;31160;49.500;7.772;2023-03-03T02:35:55;-0.60;99.90
13794;DHT22;31160;49.500;7.772;2023-03-03T02:38:52;-0.50;99.90
13794;DHT22;31160;49.500;7.772;2023-03-03T02:44:09;-0.60;99.90
13794;DHT22;31160;49.500;7.772;2023-03-03T02:46:41;-0.70;99.90
13794;DHT22;31160;49.500;7.772;2023-03-03T02:49:09;-0.70;99.90
13794;DHT22;31160;49.500;7.772;2023-03-03T02:51:36;-0.70;99.90
13794;DHT22;31160;49.500;7.772;2023-03-03T02:54:04;-0.60;99.90
13794;DHT22;31160;49.500;7.772;2023-03-03T02:56:32;-0.70;99.90
13794;DHT22;31160;49.500;7.772;2023-03-03T02:58:59;-0.70;99.90
13794;DHT22;31160;49.500;7.772;2023-03-03T03:01:27;-0.70;99.90
13794;DHT22;31160;49.500;7.772;2023-03-03T03:03:55;-0.80;99.90
13794;DHT22;31160;49.500;7.772;2023-03-03T03:06:22;-0.80;99.90
13794;DHT22;31160;49.500;7.772;2023-03-03T03:08:48;-0.80;99.90
13794;DHT22;31160;49.500;7.772;2023-03-03T03:11:15;-0.90;99.90
13794;DHT22;31160;49.500;7.772;2023-03-03T03:13:42;-0.90;99.90
13794;DHT22;31160;49.500;7.772;2023-03-03T03:16:09;-0.90;99.90
13794;DHT22;31160;49.500;7.772;2023-03-03T03:18:36;-0.90;99.90
13794;DHT22;31160;49.500;7.772;2023-03-03T03:21:10;-1.00;99.90
13794;DHT22;31160;49.500;7.772;2023-03-03T03:23:39;-1.00;99.90
13794;DHT22;31160;49.500;7.772;2023-03-03T03:26:06;-1.00;99.90
13794;DHT22;31160;49.500;7.772;2023-03-03T03:28:33;-1.00;99.90
13794;DHT22;31160;49.500;7.772;2023-03-03T03:31:02;-0.90;99.90
13794;DHT22;31160;49.500;7.772;2023-03-03T03:33:29;-0.90;99.90
13794;DHT22;31160;49.500;7.772;2023-03-03T03:35:57;-0.90;99.90
13794;DHT22;31160;49.500;7.772;2023-03-03T03:38:24;-0.90;99.90
13794;DHT22;31160;49.500;7.772;2023-03-03T03:40:53;-0.90;99.90
13794;DHT22;31160;49.500;7.772;2023-03-03T03:43:21;-1.00;99.90
13794;DHT22;31160;49.500;7.772;2023-03-03T03:45:48;-1.00;99.90
13794;DHT22;31160;49.500;7.772;2023-03-03T03:48:15;-1.00;99.90
13794;DHT22;31160;49.500;7.772;2023-03-03T03:50:46;-1.00;99.90
13794;DHT22;31160;49.500;7.772;2023-03-03T03:53:14;-1.10;99.90
13794;DHT22;31160;49.500;7.772;2023-03-03T03:55:41;-1.00;99.90
13794;DHT22;31160;49.500;7.772;2023-03-03T03:58:09;-1.00;99.90
13794;DHT22;31160;49.500;7.772;2023-03-03T04:00:39;-1.00;99.90
13794;DHT22;31160;49.500;7.772;2023-03-03T04:03:07;-1.10;99.90
13794;DHT22;31160;49.500;7.772;2023-03-03T04:05:34;-1.10;99.90
13794;DHT22;31160;49.500;7.772;2023-03-03T04:08:01;-1.10;99.90
13794;DHT22;31160;49.500;7.772;2023-03-03T04:10:28;-1.10;99.90
13794;DHT22;31160;49.500;7.772;2023-03-03T04:12:54;-1.20;99.90
13794;DHT22;31160;49.500;7.772;2023-03-03T04:15:22;-1.20;99.90
13794;DHT22;31160;49.500;7.772;2023-03-03T04:17:49;-1.20;99.90
13794;DHT22;31160;49.500;7.772;2023-03-03T04:20:16;-1.20;99.90
13794;DHT22;31160;49.500;7.772;2023-03-03T04:22:45;-1.10;99.90
13794;DHT22;31160;49.500;7.772;2023-03-03T04:25:14;-1.20;99.90
13794;DHT22;31160;49.500;7.772;2023-03-03T04:27:42;-1.20;99.90
13794;DHT22;31160;49.500;7.772;2023-03-03T04:30:11;-1.20;99.90
13794;DHT22;31160;49.500;7.772;2023-03-03T04:32:39;-1.20;99.90
13794;DHT22;31160;49.500;7.772;2023-03-03T04:35:08;-1.30;99.90
13794;DHT22;31160;49.500;7.772;2023-03-03T04:37:38;-1.30;99.90
13794;DHT22;31160;49.500;7.772;2023-03-03T04:40:07;-1.40;99.90
13794;DHT22;31160;49.500;7.772;2023-03-03T04:42:35;-1.30;99.90
13794;DHT22;31160;49.500;7.772;2023-03-03T04:45:03;-1.30;99.90
13794;DHT22;31160;49.500;7.772;2023-03-03T04:47:32;-1.30;99.90
13794;DHT22;31160;49.500;7.772;2023-03-03T04:49:59;-1.40;99.90
13794;DHT22;31160;49.500;7.772;2023-03-03T04:52:28;-1.30;99.90
13794;DHT22;31160;49.500;7.772;2023-03-03T04:54:55;-1.30;99.90
13794;DHT22;31160;49.500;7.772;2023-03-03T04:57:22;-1.30;99.90
13794;DHT22;31160;49.500;7.772;2023-03-03T04:59:49;-1.40;99.90
13794;DHT22;31160;49.500;7.772;2023-03-03T05:02:17;-1.40;99.90
13794;DHT22;31160;49.500;7.772;2023-03-03T05:04:45;-1.40;99.90
13794;DHT22;31160;49.500;7.772;2023-03-03T05:07:12;-1.40;99.90
13794;DHT22;31160;49.500;7.772;2023-03-03T05:09:39;-1.40;99.90
13794;DHT22;31160;49.500;7.772;2023-03-03T05:12:05;-1.50;99.90
13794;DHT22;31160;49.500;7.772;2023-03-03T05:14:32;-1.50;99.90
13794;DHT22;31160;49.500;7.772;2023-03-03T05:16:59;-1.50;99.90
13794;DHT22;31160;49.500;7.772;2023-03-03T05:19:26;-1.60;99.90
13794;DHT22;31160;49.500;7.772;2023-03-03T05:21:52;-1.60;99.90
13794;DHT22;31160;49.500;7.772;2023-03-03T05:24:20;-1.60;99.90
13794;DHT22;31160;49.500;7.772;2023-03-03T05:26:47;-1.60;99.90
13794;DHT22;31160;49.500;7.772;2023-03-03T05:29:13;-1.70;99.90
13794;DHT22;31160;49.500;7.772;2023-03-03T05:31:40;-1.70;99.90
13794;DHT22;31160;49.500;7.772;2023-03-03T05:34:10;-1.60;99.90
13794;DHT22;31160;49.500;7.772;2023-03-03T05:36:37;-1.70;99.90
13794;DHT22;31160;49.500;7.772;2023-03-03T05:39:04;-1.60;99.90
13794;DHT22;31160;49.500;7.772;2023-03-03T05:41:30;-1.60;99.90
13794;DHT22;31160;49.500;7.772;2023-03-03T05:43:57;-1.50;99.90
13794;DHT22;31160;49.500;7.772;2023-03-03T05:46:24;-1.50;99.90
13794;DHT22;31160;49.500;7.772;2023-03-03T05:48:50;-1.60;99.90
13794;DHT22;31160;49.500;7.772;2023-03-03T05:51:17;-1.60;99.90
13794;DHT22;31160;49.500;7.772;2023-03-03T05:53:44;-1.60;99.90
13794;DHT22;31160;49.500;7.772;2023-03-03T05:56:11;-1.60;99.90
13794;DHT22;31160;49.500;7.772;2023-03-03T05:58:38;-1.60;99.90
13794;DHT22;31160;49.500;7.772;2023-03-03T06:01:04;-1.70;99.90
13794;DHT22;31160;49.500;7.772;2023-03-03T06:03:31;-1.70;99.90
13794;DHT22;31160;49.500;7.772;2023-03-03T06:05:58;-1.60;99.90
13794;DHT22;31160;49.500;7.772;2023-03-03T06:08:25;-1.60;99.90
13794;DHT22;31160;49.500;7.772;2023-03-03T06:10:52;-1.60;99.90
13794;DHT22;31160;49.500;7.772;2023-03-03T06:13:19;-1.70;99.90
13794;DHT22;31160;49.500;7.772;2023-03-03T06:15:45;-1.70;99.90
13794;DHT22;31160;49.500;7.772;2023-03-03T06:18:12;-1.70;99.90
13794;DHT22;31160;49.500;7.772;2023-03-03T06:20:39;-1.70;99.90
13794;DHT22;31160;49.500;7.772;2023-03-03T06:23:06;-1.70;99.90
13794;DHT22;31160;49.500;7.772;2023-03-03T06:25:33;-1.70;99.90
13794;DHT22;31160;49.500;7.772;2023-03-03T06:28:01;-1.70;99.90
13794;DHT22;31160;49.500;7.772;2023-03-03T06:30:28;-1.70;99.90
13794;DHT22;31160;49.500;7.772;2023-03-03T06:32:56;-1.60;99.90
13794;DHT22;31160;49.500;7.772;2023-03-03T06:35:23;-1.60;99.90
13794;DHT22;31160;49.500;7.772;2023-03-03T06:37:50;-1.50;99.90
13794;DHT22;31160;49.500;7.772;2023-03-03T06:40:16;-1.50;99.90
13794;DHT22;31160;49.500;7.772;2023-03-03T06:42:43;-1.50;99.90
13794;DHT22;31160;49.500;7.772;2023-03-03T06:45:10;-1.50;99.90
13794;DHT22;31160;49.500;7.772;2023-03-03T06:47:37;-1.40;99.90
13794;DHT22;31160;49.500;7.772;2023-03-03T06:50:04;-1.30;99.90
13794;DHT22;31160;49.500;7.772;2023-03-03T06:52:31;-1.30;99.90
13794;DHT22;31160;49.500;7.772;2023-03-03T06:55:00;-1.30;99.90
13794;DHT22;31160;49.500;7.772;2023-03-03T06:57:32;-1.20;99.90
13794;DHT22;31160;49.500;7.772;2023-03-03T07:02:36;-1.10;99.90
13794;DHT22;31160;49.500;7.772;2023-03-03T07:05:10;-1.10;99.90
13794;DHT22;31160;49.500;7.772;2023-03-03T07:07:38;-1.00;99.90
13794;DHT22;31160;49.500;7.772;2023-03-03T07:10:26;-0.90;99.90
13794;DHT22;31160;49.500;7.772;2023-03-03T07:12:57;-0.80;99.90
13794;DHT22;31160;49.500;7.772;2023-03-03T07:15:34;-0.70;99.90
13794;DHT22;31160;49.500;7.772;2023-03-03T07:18:01;-0.70;99.90
13794;DHT22;31160;49.500;7.772;2023-03-03T07:20:35;-0.80;99.90
13794;DHT22;31160;49.500;7.772;2023-03-03T07:23:38;-0.70;99.90
13794;DHT22;31160;49.500;7.772;2023-03-03T07:26:13;-0.60;99.90
13794;DHT22;31160;49.500;7.772;2023-03-03T07:28:43;-0.50;99.90
13794;DHT22;31160;49.500;7.772;2023-03-03T07:31:33;-0.40;99.90
13794;DHT22;31160;49.500;7.772;2023-03-03T07:34:02;-0.20;99.90
13794;DHT22;31160;49.500;7.772;2023-03-03T07:36:34;-0.10;99.90
13794;DHT22;31160;49.500;7.772;2023-03-03T07:39:12;0.00;99.90
13794;DHT22;31160;49.500;7.772;2023-03-03T07:41:39;0.10;99.90
13794;DHT22;31160;49.500;7.772;2023-03-03T07:44:30;0.30;99.90
13794;DHT22;31160;49.500;7.772;2023-03-03T07:47:20;0.40;99.90
13794;DHT22;31160;49.500;7.772;2023-03-03T07:49:48;0.60;99.90
13794;DHT22;31160;49.500;7.772;2023-03-03T07:55:29;0.80;99.90
13794;DHT22;31160;49.500;7.772;2023-03-03T07:58:13;0.80;99.90
13794;DHT22;31160;49.500;7.772;2023-03-03T08:03:15;1.00;99.90
13794;DHT22;31160;49.500;7.772;2023-03-03T08:05:45;0.90;99.90
13794;DHT22;31160;49.500;7.772;2023-03-03T08:08:32;1.00;99.90
13794;DHT22;31160;49.500;7.772;2023-03-03T08:11:02;1.20;99.90
13794;DHT22;31160;49.500;7.772;2023-03-03T08:18:37;1.60;99.90
13794;DHT22;31160;49.500;7.772;2023-03-03T08:23:41;1.70;99.90
13794;DHT22;31160;49.500;7.772;2023-03-03T08:26:08;1.80;99.90
13794;DHT22;31160;49.500;7.772;2023-03-03T08:28:35;2.00;99.90
13794;DHT22;31160;49.500;7.772;2023-03-03T08:31:01;2.10;99.90
13794;DHT22;31160;49.500;7.772;2023-03-03T08:33:45;2.30;99.90
13794;DHT22;31160;49.500;7.772;2023-03-03T08:36:12;2.20;99.90
13794;DHT22;31160;49.500;7.772;2023-03-03T08:38:40;2.20;99.90
13794;DHT22;31160;49.500;7.772;2023-03-03T08:41:06;2.40;99.90
13794;DHT22;31160;49.500;7.772;2023-03-03T08:43:33;2.60;99.90
13794;DHT22;31160;49.500;7.772;2023-03-03T08:46:01;2.70;99.90
13794;DHT22;31160;49.500;7.772;2023-03-03T08:48:31;2.90;99.90
13794;DHT22;31160;49.500;7.772;2023-03-03T08:50:58;3.10;99.90
13794;DHT22;31160;49.500;7.772;2023-03-03T08:53:25;3.40;99.90
13794;DHT22;31160;49.500;7.772;2023-03-03T08:55:51;3.60;99.90
13794;DHT22;31160;49.500;7.772;2023-03-03T08:58:19;3.70;99.90
13794;DHT22;31160;49.500;7.772;2023-03-03T09:01:00;3.90;99.90
13794;DHT22;31160;49.500;7.772;2023-03-03T09:03:27;3.80;99.90
13794;DHT22;31160;49.500;7.772;2023-03-03T09:05:54;3.80;99.90
13794;DHT22;31160;49.500;7.772;2023-03-03T09:08:20;4.10;99.90
13794;DHT22;31160;49.500;7.772;2023-03-03T09:10:47;4.20;99.90
13794;DHT22;31160;49.500;7.772;2023-03-03T09:13:16;4.30;99.90
13794;DHT22;31160;49.500;7.772;2023-03-03T09:15:44;4.40;99.90
13794;DHT22;31160;49.500;7.772;2023-03-03T09:23:37;4.70;99.90
13794;DHT22;31160;49.500;7.772;2023-03-03T09:26:27;4.80;99.90
13794;DHT22;31160;49.500;7.772;2023-03-03T09:29:22;4.60;99.90
13794;DHT22;31160;49.500;7.772;2023-03-03T09:31:52;4.60;99.90
13794;DHT22;31160;49.500;7.772;2023-03-03T09:34:41;4.70;99.90
13794;DHT22;31160;49.500;7.772;2023-03-03T09:37:22;4.80;99.90
13794;DHT22;31160;49.500;7.772;2023-03-03T09:39:54;5.00;99.90
13794;DHT22;31160;49.500;7.772;2023-03-03T09:42:31;5.00;99.90
13794;DHT22;31160;49.500;7.772;2023-03-03T09:48:26;5.00;99.90
13794;DHT22;31160;49.500;7.772;2023-03-03T09:57:04;5.20;99.90
13794;DHT22;31160;49.500;7.772;2023-03-03T10:02:29;5.30;99.90
13794;DHT22;31160;49.500;7.772;2023-03-03T10:08:30;5.50;99.90
13794;DHT22;31160;49.500;7.772;2023-03-03T10:19:39;6.20;99.90
13794;DHT22;31160;49.500;7.772;2023-03-03T10:28:26;6.20;99.90
13794;DHT22;31160;49.500;7.772;2023-03-03T10:34:47;6.20;99.90
13794;DHT22;31160;49.500;7.772;2023-03-03T10:37:20;6.30;99.90
13794;DHT22;31160;49.500;7.772;2023-03-03T10:40:01;6.50;99.90
13794;DHT22;31160;49.500;7.772;2023-03-03T10:48:19;6.40;99.90
13794;DHT22;31160;49.500;7.772;2023-03-03T10:56:46;6.50;99.90
13794;DHT22;31160;49.500;7.772;2023-03-03T10:59:33;6.70;99.90
13794;DHT22;31160;49.500;7.772;2023-03-03T11:02:51;7.00;99.90
13794;DHT22;31160;49.500;7.772;2023-03-03T11:08:20;6.90;99.90
13794;DHT22;31160;49.500;7.772;2023-03-03T11:10:57;6.80;99.90
13794;DHT22;31160;49.500;7.772;2023-03-03T11:21:34;7.30;99.90
13794;DHT22;31160;49.500;7.772;2023-03-03T11:27:17;7.40;99.90
13794;DHT22;31160;49.500;7.772;2023-03-03T11:32:51;7.30;99.90
13794;DHT22;31160;49.500;7.772;2023-03-03T11:35:21;7.30;99.90
13794;DHT22;31160;49.500;7.772;2023-03-03T11:43:22;7.50;99.90
13794;DHT22;31160;49.500;7.772;2023-03-03T11:46:09;7.70;99.90
13794;DHT22;31160;49.500;7.772;2023-03-03T11:48:52;8.00;99.90
13794;DHT22;31160;49.500;7.772;2023-03-03T11:51:43;8.40;99.90
13794;DHT22;31160;49.500;7.772;2023-03-03T11:55:04;8.10;99.90
13794;DHT22;31160;49.500;7.772;2023-03-03T11:57:28;8.00;99.90
13794;DHT22;31160;49.500;7.772;2023-03-03T12:00:02;7.60;99.90
13794;DHT22;31160;49.500;7.772;2023-03-03T12:05:26;7.70;99.90
13794;DHT22;31160;49.500;7.772;2023-03-03T12:11:10;7.90;99.90
13794;DHT22;31160;49.500;7.772;2023-03-03T12:16:52;7.90;99.90
13794;DHT22;31160;49.500;7.772;2023-03-03T12:19:30;7.60;99.90
13794;DHT22;31160;49.500;7.772;2023-03-03T12:24:38;7.80;99.90
13794;DHT22;31160;49.500;7.772;2023-03-03T12:30:08;7.70;99.90
13794;DHT22;31160;49.500;7.772;2023-03-03T12:33:33;7.80;99.90
13794;DHT22;31160;49.500;7.772;2023-03-03T12:36:30;8.00;99.90
13794;DHT22;31160;49.500;7.772;2023-03-03T12:47:26;8.50;99.30
13794;DHT22;31160;49.500;7.772;2023-03-03T13:01:12;8.80;99.00
13794;DHT22;31160;49.500;7.772;2023-03-03T13:04:30;8.70;98.50
13794;DHT22;31160;49.500;7.772;2023-03-03T13:06:36;8.60;98.30
13794;DHT22;31160;49.500;7.772;2023-03-03T13:12:27;8.40;99.00
13794;DHT22;31160;49.500;7.772;2023-03-03T13:20:43;8.70;99.10
13794;DHT22;31160;49.500;7.772;2023-03-03T13:29:02;9.00;98.60
13794;DHT22;31160;49.500;7.772;2023-03-03T13:31:38;9.10;98.40
13794;DHT22;31160;49.500;7.772;2023-03-03T13:34:12;9.20;98.30
13794;DHT22;31160;49.500;7.772;2023-03-03T13:36:56;9.30;98.00
13794;DHT22;31160;49.500;7.772;2023-03-03T13:39:27;9.50;98.00
13794;DHT22;31160;49.500;7.772;2023-03-03T13:42:02;9.50;97.70
13794;DHT22;31160;49.500;7.772;2023-03-03T13:44:35;9.30;97.80
13794;DHT22;31160;49.500;7.772;2023-03-03T13:50:30;9.30;98.10
13794;DHT22;31160;49.500;7.772;2023-03-03T13:55:44;8.70;98.20
13794;DHT22;31160;49.500;7.772;2023-03-03T14:07:10;9.00;98.40
13794;DHT22;31160;49.500;7.772;2023-03-03T14:10:17;8.90;98.30
13794;DHT22;31160;49.500;7.772;2023-03-03T14:13:04;8.90;98.40
13794;DHT22;31160;49.500;7.772;2023-03-03T14:16:18;9.10;98.00
13794;DHT22;31160;49.500;7.772;2023-03-03T14:18:56;9.20;97.70
13794;DHT22;31160;49.500;7.772;2023-03-03T14:21:30;9.00;97.50
13794;DHT22;31160;49.500;7.772;2023-03-03T14:24:10;9.00;97.60
13794;DHT22;31160;49.500;7.772;2023-03-03T14:26:48;8.80;97.60
13794;DHT22;31160;49.500;7.772;2023-03-03T14:31:46;8.90;97.80
13794;DHT22;31160;49.500;7.772;2023-03-03T14:36:50;9.10;97.70
13794;DHT22;31160;49.500;7.772;2023-03-03T14:39:31;9.30;97.90
13794;DHT22;31160;49.500;7.772;2023-03-03T14:41:59;9.10;97.20
13794;DHT22;31160;49.500;7.772;2023-03-03T14:44:35;9.00;97.60
13794;DHT22;31160;49.500;7.772;2023-03-03T14:49:36;8.90;97.60
13794;DHT22;31160;49.500;7.772;2023-03-03T14:54:57;9.10;97.80
13794;DHT22;31160;49.500;7.772;2023-03-03T15:05:28;9.20;97.10
13794;DHT22;31160;49.500;7.772;2023-03-03T15:10:37;9.10;97.90
13794;DHT22;31160;49.500;7.772;2023-03-03T15:18:26;9.10;98.00
13794;DHT22;31160;49.500;7.772;2023-03-03T15:21:03;9.10;98.10
13794;DHT22;31160;49.500;7.772;2023-03-03T15:26:32;9.00;98.20
13794;DHT22;31160;49.500;7.772;2023-03-03T15:34:37;9.00;98.60
13794;DHT22;31160;49.500;7.772;2023-03-03T15:37:16;9.00;98.20
13794;DHT22;31160;49.500;7.772;2023-03-03T15:40:39;9.00;98.30
13794;DHT22;31160;49.500;7.772;2023-03-03T15:45:52;8.70;98.20
13794;DHT22;31160;49.500;7.772;2023-03-03T16:00:00;8.40;98.20
13794;DHT22;31160;49.500;7.772;2023-03-03T16:16:19;8.10;98.70
13794;DHT22;31160;49.500;7.772;2023-03-03T16:25:05;7.70;99.10
13794;DHT22;31160;49.500;7.772;2023-03-03T16:27:42;7.70;98.40
13794;DHT22;31160;49.500;7.772;2023-03-03T16:33:23;7.60;98.60
13794;DHT22;31160;49.500;7.772;2023-03-03T16:38:36;7.40;98.60
13794;DHT22;31160;49.500;7.772;2023-03-03T16:41:09;7.40;98.70
13794;DHT22;31160;49.500;7.772;2023-03-03T16:44:03;7.40;98.70
13794;DHT22;31160;49.500;7.772;2023-03-03T16:46:45;7.40;99.00
13794;DHT22;31160;49.500;7.772;2023-03-03T16:49:38;7.40;99.00
13794;DHT22;31160;49.500;7.772;2023-03-03T16:52:12;7.30;99.20
13794;DHT22;31160;49.500;7.772;2023-03-03T16:54:59;7.20;99.50
13794;DHT22;31160;49.500;7.772;2023-03-03T16:57:50;7.20;99.50
13794;DHT22;31160;49.500;7.772;2023-03-03T17:00:27;7.20;99.50
13794;DHT22;31160;49.500;7.772;2023-03-03T17:08:22;6.90;99.90
13794;DHT22;31160;49.500;7.772;2023-03-03T17:11:01;6.90;99.90
13794;DHT22;31160;49.500;7.772;2023-03-03T17:13:47;6.70;99.90
13794;DHT22;31160;49.500;7.772;2023-03-03T17:16:36;6.80;99.90
13794;DHT22;31160;49.500;7.772;2023-03-03T17:19:29;6.60;99.90
13794;DHT22;31160;49.500;7.772;2023-03-03T17:22:23;6.50;99.90
13794;DHT22;31160;49.500;7.772;2023-03-03T17:25:11;6.40;99.90
13794;DHT22;31160;49.500;7.772;2023-03-03T17:30:57;6.40;99.90
13794;DHT22;31160;49.500;7.772;2023-03-03T17:33:36;6.40;99.90
13794;DHT22;31160;49.500;7.772;2023-03-03T17:39:01;6.30;99.90
13794;DHT22;31160;49.500;7.772;2023-03-03T17:41:39;6.10;99.90
13794;DHT22;31160;49.500;7.772;2023-03-03T17:44:19;6.00;99.90
13794;DHT22;31160;49.500;7.772;2023-03-03T17:46:54;5.90;99.90
13794;DHT22;31160;49.500;7.772;2023-03-03T17:52:11;5.60;99.90
13794;DHT22;31160;49.500;7.772;2023-03-03T17:57:40;5.30;99.90
13794;DHT22;31160;49.500;7.772;2023-03-03T18:00:18;5.30;99.90
13794;DHT22;31160;49.500;7.772;2023-03-03T18:08:35;5.00;99.90
13794;DHT22;31160;49.500;7.772;2023-03-03T18:11:25;4.80;99.90
13794;DHT22;31160;49.500;7.772;2023-03-03T18:22:40;4.30;99.90
13794;DHT22;31160;49.500;7.772;2023-03-03T18:25:10;4.30;99.90
13794;DHT22;31160;49.500;7.772;2023-03-03T18:27:39;4.30;99.90
13794;DHT22;31160;49.500;7.772;2023-03-03T18:35:37;4.20;99.90
13794;DHT22;31160;49.500;7.772;2023-03-03T18:40:49;4.20;99.90
13794;DHT22;31160;49.500;7.772;2023-03-03T19:05:48;4.20;99.90
13794;DHT22;31160;49.500;7.772;2023-03-03T19:08:03;4.20;99.90
13794;DHT22;31160;49.500;7.772;2023-03-03T19:10:57;4.10;99.90
13794;DHT22;31160;49.500;7.772;2023-03-03T19:16:25;4.20;99.90
13794;DHT22;31160;49.500;7.772;2023-03-03T19:21:30;3.80;99.90
13794;DHT22;31160;49.500;7.772;2023-03-03T19:29:59;4.00;99.90
13794;DHT22;31160;49.500;7.772;2023-03-03T19:38:14;3.80;99.90
13794;DHT22;31160;49.500;7.772;2023-03-03T19:41:24;3.90;99.90
13794;DHT22;31160;49.500;7.772;2023-03-03T19:46:54;3.80;99.90
13794;DHT22;31160;49.500;7.772;2023-03-03T19:52:43;3.70;99.90
13794;DHT22;31160;49.500;7.772;2023-03-03T19:55:25;3.60;99.90
13794;DHT22;31160;49.500;7.772;2023-03-03T19:58:08;3.70;99.90
13794;DHT22;31160;49.500;7.772;2023-03-03T20:03:33;3.70;99.90
13794;DHT22;31160;49.500;7.772;2023-03-03T20:06:19;3.60;99.90
13794;DHT22;31160;49.500;7.772;2023-03-03T20:09:03;3.60;99.90
13794;DHT22;31160;49.500;7.772;2023-03-03T20:14:28;3.50;99.90
13794;DHT22;31160;49.500;7.772;2023-03-03T20:22:59;3.40;99.90
13794;DHT22;31160;49.500;7.772;2023-03-03T20:25:54;3.40;99.90
13794;DHT22;31160;49.500;7.772;2023-03-03T20:28:35;3.30;99.90
13794;DHT22;31160;49.500;7.772;2023-03-03T20:31:35;3.30;99.90
13794;DHT22;31160;49.500;7.772;2023-03-03T20:34:19;3.10;99.90
13794;DHT22;31160;49.500;7.772;2023-03-03T20:37:04;3.20;99.90
13794;DHT22;31160;49.500;7.772;2023-03-03T20:48:08;3.10;99.90
13794;DHT22;31160;49.500;7.772;2023-03-03T20:57:00;2.90;99.90
13794;DHT22;31160;49.500;7.772;2023-03-03T20:59:46;2.90;99.90
13794;DHT22;31160;49.500;7.772;2023-03-03T21:05:12;2.80;99.90
13794;DHT22;31160;49.500;7.772;2023-03-03T21:07:59;2.70;99.90
13794;DHT22;31160;49.500;7.772;2023-03-03T21:10:34;2.70;99.90
13794;DHT22;31160;49.500;7.772;2023-03-03T21:13:34;2.60;99.90
13794;DHT22;31160;49.500;7.772;2023-03-03T21:18:57;2.70;99.90
13794;DHT22;31160;49.500;7.772;2023-03-03T21:21:29;2.60;99.90
13794;DHT22;31160;49.500;7.772;2023-03-03T21:23:57;2.40;99.90
13794;DHT22;31160;49.500;7.772;2023-03-03T21:26:52;2.30;99.90
13794;DHT22;31160;49.500;7.772;2023-03-03T21:29:29;2.20;99.90
13794;DHT22;31160;49.500;7.772;2023-03-03T21:34:38;2.00;99.90
13794;DHT22;31160;49.500;7.772;2023-03-03T21:37:12;2.00;99.90
13794;DHT22;31160;49.500;7.772;2023-03-03T21:39:43;1.90;99.90
13794;DHT22;31160;49.500;7.772;2023-03-03T21:42:15;1.90;99.90
13794;DHT22;31160;49.500;7.772;2023-03-03T21:44:46;1.80;99.90
13794;DHT22;31160;49.500;7.772;2023-03-03T21:47:17;1.70;99.90
13794;DHT22;31160;49.500;7.772;2023-03-03T21:49:46;1.60;99.90
13794;DHT22;31160;49.500;7.772;2023-03-03T21:52:15;1.50;99.90
13794;DHT22;31160;49.500;7.772;2023-03-03T21:54:45;1.40;99.90
13794;DHT22;31160;49.500;7.772;2023-03-03T21:57:12;1.30;99.90
13794;DHT22;31160;49.500;7.772;2023-03-03T21:59:39;1.30;99.90
13794;DHT22;31160;49.500;7.772;2023-03-03T22:02:06;1.20;99.90
13794;DHT22;31160;49.500;7.772;2023-03-03T22:04:34;1.20;99.90
13794;DHT22;31160;49.500;7.772;2023-03-03T22:07:00;1.10;99.90
13794;DHT22;31160;49.500;7.772;2023-03-03T22:09:27;1.00;99.90
13794;DHT22;31160;49.500;7.772;2023-03-03T22:11:54;1.00;99.90
13794;DHT22;31160;49.500;7.772;2023-03-03T22:14:21;1.00;99.90
13794;DHT22;31160;49.500;7.772;2023-03-03T22:16:48;0.90;99.90
13794;DHT22;31160;49.500;7.772;2023-03-03T22:19:14;1.00;99.90
13794;DHT22;31160;49.500;7.772;2023-03-03T22:21:41;0.80;99.90